sensor_id;sensor_type;location;lat;lon;timestamp;P1;durP1;ratioP1;P2;durP2;ratioP2
56299;SDS011;42209;6.376;-10.782;2023-06-14T00:02:06;8.77;;;5.55;;
56299;SDS011;42209;6.376;-10.782;2023-06-14T00:04:35;8.43;;;5.90;;
56299;SDS011;42209;6.376;-10.782;2023-06-14T00:07:04;8.07;;;4.90;;
56299;SDS011;42209;6.376;-10.782;2023-06-14T00:09:32;10.40;;;5.55;;
56299;SDS011;42209;6.376;-10.782;2023-06-14T00:12:01;8.93;;;5.50;;
56299;SDS011;42209;6.376;-10.782;2023-06-14T00:14:30;8.23;;;5.97;;
56299;SDS011;42209;6.376;-10.782;2023-06-14T00:16:58;8.63;;;4.47;;
56299;SDS011;42209;6.376;-10.782;2023-06-14T00:19:27;8.10;;;5.32;;
56299;SDS011;42209;6.376;-10.782;2023-06-14T00:21:55;9.77;;;5.60;;
56299;SDS011;42209;6.376;-10.782;2023-06-14T00:24:24;7.95;;;4.40;;
56299;SDS011;42209;6.376;-10.782;2023-06-14T00:26:52;8.82;;;5.35;;
56299;SDS011;42209;6.376;-10.782;2023-06-14T00:29:21;7.70;;;4.93;;
56299;SDS011;42209;6.376;-10.782;2023-06-14T00:34:18;9.70;;;5.85;;
56299;SDS011;42209;6.376;-10.782;2023-06-14T00:36:47;10.73;;;5.72;;
56299;SDS011;42209;6.376;-10.782;2023-06-14T00:39:15;7.15;;;5.30;;
56299;SDS011;42209;6.376;-10.782;2023-06-14T00:41:44;7.88;;;4.57;;
56299;SDS011;42209;6.376;-10.782;2023-06-14T00:44:13;6.10;;;4.63;;
56299;SDS011;42209;6.376;-10.782;2023-06-14T00:46:47;7.10;;;4.45;;
56299;SDS011;42209;6.376;-10.782;2023-06-14T00:49:16;4.40;;;3.92;;
56299;SDS011;42209;6.376;-10.782;2023-06-14T00:51:47;7.75;;;4.10;;
56299;SDS011;42209;6.376;-10.782;2023-06-14T00:54:16;9.15;;;4.75;;
56299;SDS011;42209;6.376;-10.782;2023-06-14T00:56:44;9.80;;;5.30;;
56299;SDS011;42209;6.376;-10.782;2023-06-14T00:59:13;7.10;;;4.13;;
56299;SDS011;42209;6.376;-10.782;2023-06-14T01:01:41;7.53;;;4.13;;
56299;SDS011;42209;6.376;-10.782;2023-06-14T01:04:10;7.75;;;4.32;;
56299;SDS011;42209;6.376;-10.782;2023-06-14T01:09:42;6.55;;;4.50;;
56299;SDS011;42209;6.376;-10.782;2023-06-14T01:14:59;6.53;;;3.80;;
56299;SDS011;42209;6.376;-10.782;2023-06-14T01:17:29;7.35;;;4.20;;
56299;SDS011;42209;6.376;-10.782;2023-06-14T01:19:58;5.93;;;4.15;;
56299;SDS011;42209;6.376;-10.782;2023-06-14T01:22:29;5.78;;;3.75;;
56299;SDS011;42209;6.376;-10.782;2023-06-14T01:24:57;4.43;;;3.33;;
56299;SDS011;42209;6.376;-10.782;2023-06-14T01:27:26;5.85;;;3.78;;
56299;SDS011;42209;6.376;-10.782;2023-06-14T01:34:53;6.13;;;3.20;;
56299;SDS011;42209;6.376;-10.782;2023-06-14T01:39:51;5.25;;;3.80;;
56299;SDS011;42209;6.376;-10.782;2023-06-14T01:42:20;6.68;;;3.75;;
56299;SDS011;42209;6.376;-10.782;2023-06-14T01:44:50;7.95;;;4.43;;
56299;SDS011;42209;6.376;-10.782;2023-06-14T01:47:21;6.43;;;3.78;;
56299;SDS011;42209;6.376;-10.782;2023-06-14T01:49:49;5.90;;;3.67;;
56299;SDS011;42209;6.376;-10.782;2023-06-14T01:52:18;5.88;;;3.22;;
56299;SDS011;42209;6.376;-10.782;2023-06-14T01:54:47;4.78;;;3.50;;
56299;SDS011;42209;6.376;-10.782;2023-06-14T01:59:44;4.68;;;2.92;;
56299;SDS011;42209;6.376;-10.782;2023-06-14T02:02:12;6.72;;;3.45;;
56299;SDS011;42209;6.376;-10.782;2023-06-14T02:04:41;4.85;;;3.40;;
56299;SDS011;42209;6.376;-10.782;2023-06-14T02:07:10;6.45;;;3.78;;
56299;SDS011;42209;6.376;-10.782;2023-06-14T02:09:41;4.82;;;3.33;;
56299;SDS011;42209;6.376;-10.782;2023-06-14T02:14:37;3.97;;;3.10;;
56299;SDS011;42209;6.376;-10.782;2023-06-14T02:17:05;4.80;;;3.20;;
56299;SDS011;42209;6.376;-10.782;2023-06-14T02:19:34;5.03;;;2.92;;
56299;SDS011;42209;6.376;-10.782;2023-06-14T02:22:02;5.15;;;3.42;;
56299;SDS011;42209;6.376;-10.782;2023-06-14T02:24:33;5.18;;;2.88;;
56299;SDS011;42209;6.376;-10.782;2023-06-14T02:27:06;4.65;;;2.90;;
56299;SDS011;42209;6.376;-10.782;2023-06-14T02:29:36;6.30;;;3.05;;
56299;SDS011;42209;6.376;-10.782;2023-06-14T02:32:04;4.13;;;2.80;;
56299;SDS011;42209;6.376;-10.782;2023-06-14T02:34:33;5.05;;;3.28;;
56299;SDS011;42209;6.376;-10.782;2023-06-14T02:37:02;6.47;;;4.07;;
56299;SDS011;42209;6.376;-10.782;2023-06-14T02:39:30;6.25;;;3.40;;
56299;SDS011;42209;6.376;-10.782;2023-06-14T02:41:59;3.55;;;2.17;;
56299;SDS011;42209;6.376;-10.782;2023-06-14T02:44:27;4.85;;;2.70;;
56299;SDS011;42209;6.376;-10.782;2023-06-14T02:46:59;5.57;;;3.15;;
56299;SDS011;42209;6.376;-10.782;2023-06-14T02:49:27;4.22;;;2.90;;
56299;SDS011;42209;6.376;-10.782;2023-06-14T02:51:55;5.85;;;2.90;;
56299;SDS011;42209;6.376;-10.782;2023-06-14T02:54:24;4.57;;;2.85;;
56299;SDS011;42209;6.376;-10.782;2023-06-14T02:56:52;5.65;;;2.95;;
56299;SDS011;42209;6.376;-10.782;2023-06-14T02:59:22;4.07;;;2.47;;
56299;SDS011;42209;6.376;-10.782;2023-06-14T03:01:51;6.97;;;3.40;;
56299;SDS011;42209;6.376;-10.782;2023-06-14T03:06:49;3.53;;;2.38;;
56299;SDS011;42209;6.376;-10.782;2023-06-14T03:09:19;5.43;;;2.75;;
56299;SDS011;42209;6.376;-10.782;2023-06-14T03:11:48;5.50;;;2.47;;
56299;SDS011;42209;6.376;-10.782;2023-06-14T03:14:16;5.85;;;3.17;;
56299;SDS011;42209;6.376;-10.782;2023-06-14T03:16:45;3.45;;;2.38;;
56299;SDS011;42209;6.376;-10.782;2023-06-14T03:19:13;4.65;;;2.85;;
56299;SDS011;42209;6.376;-10.782;2023-06-14T03:21:42;4.50;;;3.00;;
56299;SDS011;42209;6.376;-10.782;2023-06-14T03:24:11;4.75;;;2.45;;
56299;SDS011;42209;6.376;-10.782;2023-06-14T03:29:08;3.67;;;2.42;;
56299;SDS011;42209;6.376;-10.782;2023-06-14T03:31:41;3.03;;;1.88;;
56299;SDS011;42209;6.376;-10.782;2023-06-14T03:34:35;5.00;;;2.80;;
56299;SDS011;42209;6.376;-10.782;2023-06-14T03:37:03;4.13;;;2.50;;
56299;SDS011;42209;6.376;-10.782;2023-06-14T03:39:33;3.05;;;1.77;;
56299;SDS011;42209;6.376;-10.782;2023-06-14T03:42:01;4.53;;;2.85;;
56299;SDS011;42209;6.376;-10.782;2023-06-14T03:44:31;5.85;;;2.42;;
56299;SDS011;42209;6.376;-10.782;2023-06-14T03:47:00;3.38;;;2.42;;
56299;SDS011;42209;6.376;-10.782;2023-06-14T03:49:29;4.00;;;2.28;;
56299;SDS011;42209;6.376;-10.782;2023-06-14T03:51:57;3.35;;;2.47;;
56299;SDS011;42209;6.376;-10.782;2023-06-14T03:54:26;3.97;;;2.33;;
56299;SDS011;42209;6.376;-10.782;2023-06-14T03:57:15;4.93;;;2.45;;
56299;SDS011;42209;6.376;-10.782;2023-06-14T04:04:41;3.28;;;1.92;;
56299;SDS011;42209;6.376;-10.782;2023-06-14T04:07:11;3.75;;;1.95;;
56299;SDS011;42209;6.376;-10.782;2023-06-14T04:09:40;2.67;;;2.13;;
56299;SDS011;42209;6.376;-10.782;2023-06-14T04:12:09;3.10;;;2.55;;
56299;SDS011;42209;6.376;-10.782;2023-06-14T04:14:40;2.85;;;2.08;;
56299;SDS011;42209;6.376;-10.782;2023-06-14T04:17:10;2.70;;;1.88;;
56299;SDS011;42209;6.376;-10.782;2023-06-14T04:19:43;2.20;;;1.52;;
56299;SDS011;42209;6.376;-10.782;2023-06-14T04:22:12;4.45;;;1.90;;
56299;SDS011;42209;6.376;-10.782;2023-06-14T04:24:41;4.55;;;2.30;;
56299;SDS011;42209;6.376;-10.782;2023-06-14T04:27:10;3.08;;;1.98;;
56299;SDS011;42209;6.376;-10.782;2023-06-14T04:29:40;4.20;;;2.17;;
56299;SDS011;42209;6.376;-10.782;2023-06-14T04:32:11;3.53;;;2.00;;
56299;SDS011;42209;6.376;-10.782;2023-06-14T04:34:40;3.63;;;2.10;;
56299;SDS011;42209;6.376;-10.782;2023-06-14T04:37:08;4.40;;;2.10;;
56299;SDS011;42209;6.376;-10.782;2023-06-14T04:39:39;2.80;;;2.10;;
56299;SDS011;42209;6.376;-10.782;2023-06-14T04:47:05;2.80;;;1.90;;
56299;SDS011;42209;6.376;-10.782;2023-06-14T04:49:34;3.28;;;1.92;;
56299;SDS011;42209;6.376;-10.782;2023-06-14T04:52:04;4.65;;;1.77;;
56299;SDS011;42209;6.376;-10.782;2023-06-14T04:54:36;3.42;;;2.13;;
56299;SDS011;42209;6.376;-10.782;2023-06-14T04:57:08;3.55;;;2.65;;
56299;SDS011;42209;6.376;-10.782;2023-06-14T04:59:37;5.25;;;2.30;;
56299;SDS011;42209;6.376;-10.782;2023-06-14T05:02:06;4.45;;;2.20;;
56299;SDS011;42209;6.376;-10.782;2023-06-14T05:04:35;2.83;;;1.83;;
56299;SDS011;42209;6.376;-10.782;2023-06-14T05:07:03;2.33;;;1.52;;
56299;SDS011;42209;6.376;-10.782;2023-06-14T05:09:32;2.83;;;1.80;;
56299;SDS011;42209;6.376;-10.782;2023-06-14T05:12:00;3.80;;;1.98;;
56299;SDS011;42209;6.376;-10.782;2023-06-14T05:14:29;4.00;;;2.13;;
56299;SDS011;42209;6.376;-10.782;2023-06-14T05:16:58;3.40;;;2.15;;
56299;SDS011;42209;6.376;-10.782;2023-06-14T05:19:26;3.13;;;2.58;;
56299;SDS011;42209;6.376;-10.782;2023-06-14T05:21:54;4.40;;;2.42;;
56299;SDS011;42209;6.376;-10.782;2023-06-14T05:24:23;2.50;;;1.77;;
56299;SDS011;42209;6.376;-10.782;2023-06-14T05:26:52;2.85;;;1.95;;
56299;SDS011;42209;6.376;-10.782;2023-06-14T05:29:21;2.15;;;1.40;;
56299;SDS011;42209;6.376;-10.782;2023-06-14T05:31:50;2.97;;;1.77;;
56299;SDS011;42209;6.376;-10.782;2023-06-14T05:34:19;4.20;;;2.15;;
56299;SDS011;42209;6.376;-10.782;2023-06-14T05:36:47;3.35;;;1.85;;
56299;SDS011;42209;6.376;-10.782;2023-06-14T05:39:15;3.97;;;1.70;;
56299;SDS011;42209;6.376;-10.782;2023-06-14T05:41:44;2.97;;;2.17;;
56299;SDS011;42209;6.376;-10.782;2023-06-14T05:44:15;3.78;;;2.20;;
56299;SDS011;42209;6.376;-10.782;2023-06-14T05:46:44;3.63;;;2.38;;
56299;SDS011;42209;6.376;-10.782;2023-06-14T05:51:40;4.43;;;2.53;;
56299;SDS011;42209;6.376;-10.782;2023-06-14T05:54:09;3.10;;;2.40;;
56299;SDS011;42209;6.376;-10.782;2023-06-14T05:56:37;3.78;;;1.92;;
56299;SDS011;42209;6.376;-10.782;2023-06-14T05:59:05;4.43;;;2.30;;
56299;SDS011;42209;6.376;-10.782;2023-06-14T06:04:02;3.38;;;2.50;;
56299;SDS011;42209;6.376;-10.782;2023-06-14T06:06:31;2.42;;;1.80;;
56299;SDS011;42209;6.376;-10.782;2023-06-14T06:11:27;4.38;;;2.50;;
56299;SDS011;42209;6.376;-10.782;2023-06-14T06:14:10;3.70;;;1.90;;
56299;SDS011;42209;6.376;-10.782;2023-06-14T06:16:38;3.22;;;2.28;;
56299;SDS011;42209;6.376;-10.782;2023-06-14T06:21:35;3.47;;;2.92;;
56299;SDS011;42209;6.376;-10.782;2023-06-14T06:24:04;8.05;;;2.33;;
56299;SDS011;42209;6.376;-10.782;2023-06-14T06:26:33;4.45;;;2.00;;
56299;SDS011;42209;6.376;-10.782;2023-06-14T06:29:01;4.78;;;2.47;;
56299;SDS011;42209;6.376;-10.782;2023-06-14T06:31:30;2.55;;;2.25;;
56299;SDS011;42209;6.376;-10.782;2023-06-14T06:36:26;4.50;;;2.13;;
56299;SDS011;42209;6.376;-10.782;2023-06-14T06:38:55;2.85;;;1.90;;
56299;SDS011;42209;6.376;-10.782;2023-06-14T06:41:23;4.88;;;2.50;;
56299;SDS011;42209;6.376;-10.782;2023-06-14T06:43:52;3.42;;;2.25;;
56299;SDS011;42209;6.376;-10.782;2023-06-14T06:46:27;2.80;;;1.60;;
56299;SDS011;42209;6.376;-10.782;2023-06-14T06:48:56;5.22;;;1.92;;
56299;SDS011;42209;6.376;-10.782;2023-06-14T06:51:24;2.30;;;1.73;;
56299;SDS011;42209;6.376;-10.782;2023-06-14T06:53:53;3.28;;;1.90;;
56299;SDS011;42209;6.376;-10.782;2023-06-14T06:56:22;3.45;;;2.28;;
56299;SDS011;42209;6.376;-10.782;2023-06-14T06:58:50;4.63;;;2.33;;
56299;SDS011;42209;6.376;-10.782;2023-06-14T07:03:47;4.93;;;1.90;;
56299;SDS011;42209;6.376;-10.782;2023-06-14T07:06:16;3.75;;;2.50;;
56299;SDS011;42209;6.376;-10.782;2023-06-14T07:08:44;5.18;;;2.42;;
56299;SDS011;42209;6.376;-10.782;2023-06-14T07:13:41;3.35;;;1.80;;
56299;SDS011;42209;6.376;-10.782;2023-06-14T07:16:10;5.57;;;1.85;;
56299;SDS011;42209;6.376;-10.782;2023-06-14T07:18:38;5.60;;;2.88;;
56299;SDS011;42209;6.376;-10.782;2023-06-14T07:21:07;9.68;;;2.40;;
56299;SDS011;42209;6.376;-10.782;2023-06-14T07:23:36;7.63;;;2.63;;
56299;SDS011;42209;6.376;-10.782;2023-06-14T07:26:04;5.38;;;2.25;;
56299;SDS011;42209;6.376;-10.782;2023-06-14T07:28:32;3.60;;;1.75;;
56299;SDS011;42209;6.376;-10.782;2023-06-14T07:31:03;5.30;;;2.45;;
56299;SDS011;42209;6.376;-10.782;2023-06-14T07:33:32;7.40;;;2.50;;
56299;SDS011;42209;6.376;-10.782;2023-06-14T07:36:01;5.20;;;3.00;;
56299;SDS011;42209;6.376;-10.782;2023-06-14T07:40:57;4.43;;;2.45;;
56299;SDS011;42209;6.376;-10.782;2023-06-14T07:43:26;6.78;;;3.33;;
56299;SDS011;42209;6.376;-10.782;2023-06-14T07:45:57;5.35;;;3.03;;
56299;SDS011;42209;6.376;-10.782;2023-06-14T07:48:34;6.97;;;2.83;;
56299;SDS011;42209;6.376;-10.782;2023-06-14T07:51:03;6.28;;;3.20;;
56299;SDS011;42209;6.376;-10.782;2023-06-14T07:53:31;7.47;;;3.80;;
56299;SDS011;42209;6.376;-10.782;2023-06-14T08:03:25;5.45;;;3.33;;
56299;SDS011;42209;6.376;-10.782;2023-06-14T08:08:25;5.93;;;3.88;;
56299;SDS011;42209;6.376;-10.782;2023-06-14T08:10:54;6.60;;;4.30;;
56299;SDS011;42209;6.376;-10.782;2023-06-14T08:13:23;7.97;;;4.07;;
56299;SDS011;42209;6.376;-10.782;2023-06-14T08:20:48;6.32;;;4.05;;
56299;SDS011;42209;6.376;-10.782;2023-06-14T08:25:46;7.35;;;3.83;;
56299;SDS011;42209;6.376;-10.782;2023-06-14T08:28:15;8.93;;;5.15;;
56299;SDS011;42209;6.376;-10.782;2023-06-14T08:30:44;10.70;;;6.30;;
56299;SDS011;42209;6.376;-10.782;2023-06-14T08:33:13;10.32;;;6.10;;
56299;SDS011;42209;6.376;-10.782;2023-06-14T08:35:43;12.18;;;5.32;;
56299;SDS011;42209;6.376;-10.782;2023-06-14T08:38:13;10.25;;;5.85;;
56299;SDS011;42209;6.376;-10.782;2023-06-14T08:40:42;14.18;;;6.93;;
56299;SDS011;42209;6.376;-10.782;2023-06-14T08:43:10;9.60;;;5.10;;
56299;SDS011;42209;6.376;-10.782;2023-06-14T08:45:39;10.02;;;5.90;;
56299;SDS011;42209;6.376;-10.782;2023-06-14T08:48:07;10.23;;;5.78;;
56299;SDS011;42209;6.376;-10.782;2023-06-14T08:50:36;8.10;;;5.60;;
56299;SDS011;42209;6.376;-10.782;2023-06-14T08:53:09;9.88;;;5.82;;
56299;SDS011;42209;6.376;-10.782;2023-06-14T08:55:45;10.35;;;5.55;;
56299;SDS011;42209;6.376;-10.782;2023-06-14T09:00:42;10.25;;;6.07;;
56299;SDS011;42209;6.376;-10.782;2023-06-14T09:05:39;7.85;;;4.90;;
56299;SDS011;42209;6.376;-10.782;2023-06-14T09:08:08;6.65;;;5.13;;
56299;SDS011;42209;6.376;-10.782;2023-06-14T09:13:08;7.90;;;4.97;;
56299;SDS011;42209;6.376;-10.782;2023-06-14T09:18:05;6.80;;;4.03;;
56299;SDS011;42209;6.376;-10.782;2023-06-14T09:20:36;7.47;;;5.10;;
56299;SDS011;42209;6.376;-10.782;2023-06-14T09:23:05;7.18;;;4.97;;
56299;SDS011;42209;6.376;-10.782;2023-06-14T09:28:12;7.05;;;4.93;;
56299;SDS011;42209;6.376;-10.782;2023-06-14T09:33:09;5.30;;;4.20;;
56299;SDS011;42209;6.376;-10.782;2023-06-14T09:35:38;4.85;;;4.20;;
56299;SDS011;42209;6.376;-10.782;2023-06-14T09:38:06;4.85;;;4.07;;
56299;SDS011;42209;6.376;-10.782;2023-06-14T09:40:35;5.32;;;4.15;;
56299;SDS011;42209;6.376;-10.782;2023-06-14T09:45:33;7.28;;;4.00;;
56299;SDS011;42209;6.376;-10.782;2023-06-14T09:50:34;7.13;;;3.88;;
56299;SDS011;42209;6.376;-10.782;2023-06-14T09:53:06;7.32;;;4.00;;
56299;SDS011;42209;6.376;-10.782;2023-06-14T09:55:38;5.53;;;3.65;;
56299;SDS011;42209;6.376;-10.782;2023-06-14T09:58:09;6.20;;;3.25;;
56299;SDS011;42209;6.376;-10.782;2023-06-14T10:00:38;5.93;;;4.20;;
56299;SDS011;42209;6.376;-10.782;2023-06-14T10:03:14;4.28;;;3.17;;
56299;SDS011;42209;6.376;-10.782;2023-06-14T10:05:50;6.43;;;3.83;;
56299;SDS011;42209;6.376;-10.782;2023-06-14T10:08:23;4.72;;;3.58;;
56299;SDS011;42209;6.376;-10.782;2023-06-14T10:10:57;5.22;;;3.53;;
56299;SDS011;42209;6.376;-10.782;2023-06-14T10:13:26;5.20;;;3.17;;
56299;SDS011;42209;6.376;-10.782;2023-06-14T10:24:37;5.43;;;3.80;;
56299;SDS011;42209;6.376;-10.782;2023-06-14T10:27:14;5.07;;;3.13;;
56299;SDS011;42209;6.376;-10.782;2023-06-14T10:32:24;5.38;;;3.17;;
56299;SDS011;42209;6.376;-10.782;2023-06-14T10:37:24;5.80;;;3.10;;
56299;SDS011;42209;6.376;-10.782;2023-06-14T10:39:54;4.88;;;3.17;;
56299;SDS011;42209;6.376;-10.782;2023-06-14T10:42:23;3.45;;;3.15;;
56299;SDS011;42209;6.376;-10.782;2023-06-14T10:44:59;4.65;;;2.72;;
56299;SDS011;42209;6.376;-10.782;2023-06-14T10:47:32;4.47;;;3.05;;
56299;SDS011;42209;6.376;-10.782;2023-06-14T10:50:09;5.07;;;3.10;;
56299;SDS011;42209;6.376;-10.782;2023-06-14T10:52:41;3.30;;;3.00;;
56299;SDS011;42209;6.376;-10.782;2023-06-14T10:55:19;4.05;;;2.42;;
56299;SDS011;42209;6.376;-10.782;2023-06-14T10:57:51;3.50;;;2.65;;
56299;SDS011;42209;6.376;-10.782;2023-06-14T11:00:22;5.53;;;3.40;;
56299;SDS011;42209;6.376;-10.782;2023-06-14T11:02:52;4.80;;;2.75;;
56299;SDS011;42209;6.376;-10.782;2023-06-14T11:05:25;3.97;;;3.15;;
56299;SDS011;42209;6.376;-10.782;2023-06-14T11:10:46;4.28;;;3.10;;
56299;SDS011;42209;6.376;-10.782;2023-06-14T11:13:16;3.80;;;2.30;;
56299;SDS011;42209;6.376;-10.782;2023-06-14T11:15:46;3.33;;;2.47;;
56299;SDS011;42209;6.376;-10.782;2023-06-14T11:18:15;6.13;;;2.50;;
56299;SDS011;42209;6.376;-10.782;2023-06-14T11:20:45;4.05;;;3.08;;
56299;SDS011;42209;6.376;-10.782;2023-06-14T11:23:15;5.30;;;2.85;;
56299;SDS011;42209;6.376;-10.782;2023-06-14T11:25:43;4.63;;;2.75;;
56299;SDS011;42209;6.376;-10.782;2023-06-14T11:28:18;5.07;;;2.13;;
56299;SDS011;42209;6.376;-10.782;2023-06-14T11:30:47;5.53;;;2.22;;
56299;SDS011;42209;6.376;-10.782;2023-06-14T11:33:17;5.47;;;3.15;;
56299;SDS011;42209;6.376;-10.782;2023-06-14T11:35:46;4.10;;;2.35;;
56299;SDS011;42209;6.376;-10.782;2023-06-14T11:38:15;3.00;;;2.53;;
56299;SDS011;42209;6.376;-10.782;2023-06-14T11:40:43;5.13;;;2.17;;
56299;SDS011;42209;6.376;-10.782;2023-06-14T11:43:12;3.38;;;2.40;;
56299;SDS011;42209;6.376;-10.782;2023-06-14T11:45:41;5.35;;;2.40;;
56299;SDS011;42209;6.376;-10.782;2023-06-14T11:48:40;5.57;;;2.47;;
56299;SDS011;42209;6.376;-10.782;2023-06-14T11:51:10;4.32;;;2.88;;
56299;SDS011;42209;6.376;-10.782;2023-06-14T11:56:07;3.72;;;1.77;;
56299;SDS011;42209;6.376;-10.782;2023-06-14T11:58:36;3.97;;;2.40;;
56299;SDS011;42209;6.376;-10.782;2023-06-14T12:03:33;4.53;;;2.22;;
56299;SDS011;42209;6.376;-10.782;2023-06-14T12:06:05;3.30;;;2.38;;
56299;SDS011;42209;6.376;-10.782;2023-06-14T12:08:36;4.70;;;2.90;;
56299;SDS011;42209;6.376;-10.782;2023-06-14T12:11:11;4.82;;;2.40;;
56299;SDS011;42209;6.376;-10.782;2023-06-14T12:13:41;4.53;;;1.98;;
56299;SDS011;42209;6.376;-10.782;2023-06-14T12:16:11;4.05;;;2.65;;
56299;SDS011;42209;6.376;-10.782;2023-06-14T12:18:40;3.80;;;2.47;;
56299;SDS011;42209;6.376;-10.782;2023-06-14T12:21:09;3.13;;;2.35;;
56299;SDS011;42209;6.376;-10.782;2023-06-14T12:23:39;3.65;;;2.20;;
56299;SDS011;42209;6.376;-10.782;2023-06-14T12:26:15;3.63;;;2.65;;
56299;SDS011;42209;6.376;-10.782;2023-06-14T12:28:46;3.47;;;2.40;;
56299;SDS011;42209;6.376;-10.782;2023-06-14T12:31:15;2.45;;;1.90;;
56299;SDS011;42209;6.376;-10.782;2023-06-14T12:33:44;4.75;;;2.72;;
56299;SDS011;42209;6.376;-10.782;2023-06-14T12:36:13;3.20;;;1.90;;
56299;SDS011;42209;6.376;-10.782;2023-06-14T12:38:41;3.45;;;2.53;;
56299;SDS011;42209;6.376;-10.782;2023-06-14T12:43:39;4.05;;;2.10;;
56299;SDS011;42209;6.376;-10.782;2023-06-14T12:46:09;3.10;;;2.00;;
56299;SDS011;42209;6.376;-10.782;2023-06-14T12:48:37;3.33;;;2.03;;
56299;SDS011;42209;6.376;-10.782;2023-06-14T12:51:06;5.30;;;2.08;;
56299;SDS011;42209;6.376;-10.782;2023-06-14T12:53:34;3.78;;;2.15;;
56299;SDS011;42209;6.376;-10.782;2023-06-14T12:56:03;4.38;;;2.22;;
56299;SDS011;42209;6.376;-10.782;2023-06-14T13:01:00;5.40;;;2.22;;
56299;SDS011;42209;6.376;-10.782;2023-06-14T13:03:28;4.55;;;2.53;;
56299;SDS011;42209;6.376;-10.782;2023-06-14T13:05:57;5.00;;;2.10;;
56299;SDS011;42209;6.376;-10.782;2023-06-14T13:08:26;4.30;;;1.95;;
56299;SDS011;42209;6.376;-10.782;2023-06-14T13:13:23;3.10;;;1.70;;
56299;SDS011;42209;6.376;-10.782;2023-06-14T13:15:52;3.58;;;2.03;;
56299;SDS011;42209;6.376;-10.782;2023-06-14T13:18:20;3.15;;;1.75;;
56299;SDS011;42209;6.376;-10.782;2023-06-14T13:20:49;3.25;;;1.90;;
56299;SDS011;42209;6.376;-10.782;2023-06-14T13:23:17;3.70;;;2.33;;
56299;SDS011;42209;6.376;-10.782;2023-06-14T13:28:14;3.10;;;1.65;;
56299;SDS011;42209;6.376;-10.782;2023-06-14T13:30:42;4.75;;;2.33;;
56299;SDS011;42209;6.376;-10.782;2023-06-14T13:33:11;4.50;;;2.80;;
56299;SDS011;42209;6.376;-10.782;2023-06-14T13:35:40;6.60;;;2.83;;
56299;SDS011;42209;6.376;-10.782;2023-06-14T13:38:09;8.73;;;2.65;;
56299;SDS011;42209;6.376;-10.782;2023-06-14T13:40:38;7.38;;;3.15;;
56299;SDS011;42209;6.376;-10.782;2023-06-14T13:45:35;4.75;;;2.97;;
56299;SDS011;42209;6.376;-10.782;2023-06-14T13:48:05;3.85;;;2.90;;
56299;SDS011;42209;6.376;-10.782;2023-06-14T13:50:34;5.18;;;2.25;;
56299;SDS011;42209;6.376;-10.782;2023-06-14T13:53:05;4.43;;;2.63;;
56299;SDS011;42209;6.376;-10.782;2023-06-14T13:58:02;4.20;;;2.75;;
56299;SDS011;42209;6.376;-10.782;2023-06-14T14:00:30;4.45;;;2.45;;
56299;SDS011;42209;6.376;-10.782;2023-06-14T14:02:59;4.05;;;2.47;;
56299;SDS011;42209;6.376;-10.782;2023-06-14T14:05:27;7.13;;;3.00;;
56299;SDS011;42209;6.376;-10.782;2023-06-14T14:07:59;4.80;;;3.00;;
56299;SDS011;42209;6.376;-10.782;2023-06-14T14:10:28;6.22;;;2.42;;
56299;SDS011;42209;6.376;-10.782;2023-06-14T14:12:56;5.18;;;2.80;;
56299;SDS011;42209;6.376;-10.782;2023-06-14T14:15:25;3.38;;;2.33;;
56299;SDS011;42209;6.376;-10.782;2023-06-14T14:17:53;4.15;;;2.42;;
56299;SDS011;42209;6.376;-10.782;2023-06-14T14:20:23;3.15;;;2.38;;
56299;SDS011;42209;6.376;-10.782;2023-06-14T14:22:51;4.47;;;2.72;;
56299;SDS011;42209;6.376;-10.782;2023-06-14T14:25:20;5.32;;;2.80;;
56299;SDS011;42209;6.376;-10.782;2023-06-14T14:30:17;4.97;;;2.40;;
56299;SDS011;42209;6.376;-10.782;2023-06-14T14:35:14;4.22;;;2.20;;
56299;SDS011;42209;6.376;-10.782;2023-06-14T14:40:11;5.15;;;2.25;;
56299;SDS011;42209;6.376;-10.782;2023-06-14T14:42:40;4.50;;;2.25;;
56299;SDS011;42209;6.376;-10.782;2023-06-14T14:45:09;2.15;;;1.50;;
56299;SDS011;42209;6.376;-10.782;2023-06-14T14:47:38;3.88;;;2.75;;
56299;SDS011;42209;6.376;-10.782;2023-06-14T14:50:07;3.88;;;2.38;;
56299;SDS011;42209;6.376;-10.782;2023-06-14T14:52:37;6.90;;;2.92;;
56299;SDS011;42209;6.376;-10.782;2023-06-14T14:55:05;13.18;;;2.67;;
56299;SDS011;42209;6.376;-10.782;2023-06-14T14:57:35;7.20;;;2.17;;
56299;SDS011;42209;6.376;-10.782;2023-06-14T15:00:04;3.33;;;1.77;;
56299;SDS011;42209;6.376;-10.782;2023-06-14T15:02:33;5.00;;;2.00;;
56299;SDS011;42209;6.376;-10.782;2023-06-14T15:05:04;3.47;;;2.15;;
56299;SDS011;42209;6.376;-10.782;2023-06-14T15:10:01;4.07;;;2.08;;
56299;SDS011;42209;6.376;-10.782;2023-06-14T15:12:30;7.72;;;2.60;;
56299;SDS011;42209;6.376;-10.782;2023-06-14T15:14:58;8.15;;;3.08;;
56299;SDS011;42209;6.376;-10.782;2023-06-14T15:19:55;6.57;;;3.25;;
56299;SDS011;42209;6.376;-10.782;2023-06-14T15:22:23;4.75;;;2.63;;
56299;SDS011;42209;6.376;-10.782;2023-06-14T15:24:52;6.50;;;2.97;;
56299;SDS011;42209;6.376;-10.782;2023-06-14T15:27:21;7.78;;;2.03;;
56299;SDS011;42209;6.376;-10.782;2023-06-14T15:29:49;8.10;;;2.60;;
56299;SDS011;42209;6.376;-10.782;2023-06-14T15:32:18;4.80;;;2.63;;
56299;SDS011;42209;6.376;-10.782;2023-06-14T15:34:47;5.05;;;2.40;;
56299;SDS011;42209;6.376;-10.782;2023-06-14T15:37:16;7.90;;;2.88;;
56299;SDS011;42209;6.376;-10.782;2023-06-14T15:39:45;5.38;;;2.30;;
56299;SDS011;42209;6.376;-10.782;2023-06-14T15:42:13;7.53;;;2.85;;
56299;SDS011;42209;6.376;-10.782;2023-06-14T15:44:42;5.03;;;2.85;;
56299;SDS011;42209;6.376;-10.782;2023-06-14T15:47:11;5.47;;;2.42;;
56299;SDS011;42209;6.376;-10.782;2023-06-14T15:49:39;5.15;;;2.72;;
56299;SDS011;42209;6.376;-10.782;2023-06-14T15:52:12;3.65;;;2.35;;
56299;SDS011;42209;6.376;-10.782;2023-06-14T15:57:09;6.43;;;2.22;;
56299;SDS011;42209;6.376;-10.782;2023-06-14T15:59:37;4.88;;;2.92;;
56299;SDS011;42209;6.376;-10.782;2023-06-14T16:02:06;3.70;;;2.25;;
56299;SDS011;42209;6.376;-10.782;2023-06-14T16:04:34;5.65;;;2.40;;
56299;SDS011;42209;6.376;-10.782;2023-06-14T16:07:06;2.95;;;1.73;;
56299;SDS011;42209;6.376;-10.782;2023-06-14T16:09:34;4.40;;;2.22;;
56299;SDS011;42209;6.376;-10.782;2023-06-14T16:12:03;5.53;;;2.47;;
56299;SDS011;42209;6.376;-10.782;2023-06-14T16:14:32;6.32;;;2.10;;
56299;SDS011;42209;6.376;-10.782;2023-06-14T16:17:01;2.90;;;1.83;;
56299;SDS011;42209;6.376;-10.782;2023-06-14T16:19:30;5.82;;;2.30;;
56299;SDS011;42209;6.376;-10.782;2023-06-14T16:21:58;3.47;;;2.40;;
56299;SDS011;42209;6.376;-10.782;2023-06-14T16:24:27;4.53;;;1.90;;
56299;SDS011;42209;6.376;-10.782;2023-06-14T16:26:55;4.97;;;2.15;;
56299;SDS011;42209;6.376;-10.782;2023-06-14T16:29:24;7.60;;;2.03;;
56299;SDS011;42209;6.376;-10.782;2023-06-14T16:31:52;3.38;;;1.83;;
56299;SDS011;42209;6.376;-10.782;2023-06-14T16:36:49;3.90;;;1.75;;
56299;SDS011;42209;6.376;-10.782;2023-06-14T16:39:18;3.50;;;1.58;;
56299;SDS011;42209;6.376;-10.782;2023-06-14T16:41:46;7.03;;;2.08;;
56299;SDS011;42209;6.376;-10.782;2023-06-14T16:44:15;5.25;;;1.73;;
56299;SDS011;42209;6.376;-10.782;2023-06-14T16:46:43;2.90;;;2.05;;
56299;SDS011;42209;6.376;-10.782;2023-06-14T16:49:13;4.10;;;2.15;;
56299;SDS011;42209;6.376;-10.782;2023-06-14T16:51:41;5.25;;;1.95;;
56299;SDS011;42209;6.376;-10.782;2023-06-14T16:54:10;2.55;;;1.67;;
56299;SDS011;42209;6.376;-10.782;2023-06-14T16:56:38;3.78;;;1.73;;
56299;SDS011;42209;6.376;-10.782;2023-06-14T16:59:07;2.95;;;2.28;;
56299;SDS011;42209;6.376;-10.782;2023-06-14T17:01:35;3.35;;;2.20;;
56299;SDS011;42209;6.376;-10.782;2023-06-14T17:06:32;3.90;;;2.25;;
56299;SDS011;42209;6.376;-10.782;2023-06-14T17:09:01;4.03;;;2.17;;
56299;SDS011;42209;6.376;-10.782;2023-06-14T17:11:29;4.00;;;1.98;;
56299;SDS011;42209;6.376;-10.782;2023-06-14T17:13:58;3.42;;;1.98;;
56299;SDS011;42209;6.376;-10.782;2023-06-14T17:16:26;2.95;;;1.60;;